NSZ3B EDDF-EKCH
Flight info
| Callsign | NSZ3B |
|---|---|
| Flight time | N/A |
| Altitude | 37000 |
| Route | MARUN1D MARUN Y150 TOLGI DCT SAS DCT MAKEL N851 GESKA Z711 MONAK |
| Aircraft | B738/M-SDE2E3FGHIRWXY/LB1 |
Departure
| Time | 2026-04-17 22:40 |
|---|---|
| Airport | Frankfurt Main Airport (EDDF) |
Arrival
| Time | N/A |
|---|---|
| Airport | Copenhagen Kastrup Airport (EKCH) |
| Time | Latitude | Longitude | Altitude | Speed | Heading |
|---|---|---|---|---|---|
| 2026-04-17 22:15 | 50.03719 | 8.54181 | 353 ft | 0 kts | 160° |
| 2026-04-17 22:16 | 50.03720 | 8.54181 | 353 ft | 0 kts | 160° |
| 2026-04-17 22:17 | 50.03715 | 8.54184 | 353 ft | 0 kts | 160° |
| 2026-04-17 22:33 | 50.03722 | 8.54180 | 345 ft | 4 kts | 160° |
| 2026-04-17 22:33 | 50.03747 | 8.54165 | 355 ft | 4 kts | 160° |
| 2026-04-17 22:33 | 50.03771 | 8.54157 | 354 ft | 4 kts | 196° |
| 2026-04-17 22:34 | 50.03789 | 8.54179 | 347 ft | 4 kts | 246° |
| 2026-04-17 22:34 | 50.03796 | 8.54209 | 350 ft | 0 kts | 249° |
| 2026-04-17 22:36 | 50.03789 | 8.54179 | 347 ft | 7 kts | 249° |
| 2026-04-17 22:36 | 50.03768 | 8.54092 | 346 ft | 9 kts | 249° |
| 2026-04-17 22:36 | 50.03745 | 8.53998 | 354 ft | 9 kts | 250° |
| 2026-04-17 22:37 | 50.03722 | 8.53898 | 345 ft | 11 kts | 250° |
| 2026-04-17 22:37 | 50.03697 | 8.53789 | 346 ft | 11 kts | 249° |
| 2026-04-17 22:37 | 50.03670 | 8.53681 | 350 ft | 10 kts | 249° |
| 2026-04-17 22:37 | 50.03639 | 8.53581 | 346 ft | 10 kts | 229° |
| 2026-04-17 22:38 | 50.03580 | 8.53529 | 348 ft | 10 kts | 204° |
| 2026-04-17 22:38 | 50.03518 | 8.53486 | 357 ft | 10 kts | 204° |
| 2026-04-17 22:38 | 50.03457 | 8.53444 | 348 ft | 9 kts | 201° |
| 2026-04-17 22:38 | 50.03396 | 8.53455 | 349 ft | 9 kts | 148° |
| 2026-04-17 22:39 | 50.03355 | 8.53528 | 348 ft | 9 kts | 127° |
| 2026-04-17 22:39 | 50.03321 | 8.53606 | 353 ft | 9 kts | 121° |
| 2026-04-17 22:39 | 50.03347 | 8.53821 | 347 ft | 19 kts | 69° |
| 2026-04-17 22:40 | 50.03467 | 8.54323 | 351 ft | 85 kts | 69° |
| 2026-04-17 22:40 | 50.03753 | 8.55512 | 352 ft | 146 kts | 69° |
| 2026-04-17 22:40 | 50.04144 | 8.57145 | 698 ft | 165 kts | 69° |
| 2026-04-17 22:40 | 50.04531 | 8.58835 | 1407 ft | 168 kts | 71° |
| 2026-04-17 22:41 | 50.04911 | 8.60563 | 2035 ft | 171 kts | 71° |
| 2026-04-17 22:41 | 50.05296 | 8.62364 | 2532 ft | 179 kts | 71° |
| 2026-04-17 22:41 | 50.05698 | 8.64194 | 3167 ft | 179 kts | 70° |
| 2026-04-17 22:41 | 50.06124 | 8.66003 | 3848 ft | 177 kts | 69° |
| 2026-04-17 22:42 | 50.06574 | 8.67823 | 4444 ft | 180 kts | 70° |
| 2026-04-17 22:42 | 50.07015 | 8.69696 | 4853 ft | 195 kts | 71° |
| 2026-04-17 22:42 | 50.07742 | 8.71586 | 5108 ft | 214 kts | 42° |
| 2026-04-17 22:42 | 50.09088 | 8.72696 | 5255 ft | 231 kts | 20° |
| 2026-04-17 22:43 | 50.10659 | 8.73636 | 5390 ft | 251 kts | 21° |
| 2026-04-17 22:43 | 50.12363 | 8.74682 | 5627 ft | 271 kts | 21° |
| 2026-04-17 22:43 | 50.14118 | 8.75792 | 6167 ft | 278 kts | 22° |
| 2026-04-17 22:43 | 50.15933 | 8.76971 | 6825 ft | 282 kts | 22° |
| 2026-04-17 22:44 | 50.17729 | 8.78160 | 7492 ft | 285 kts | 22° |
| 2026-04-17 22:44 | 50.19566 | 8.79390 | 8192 ft | 287 kts | 23° |
| 2026-04-17 22:44 | 50.21419 | 8.80641 | 8904 ft | 290 kts | 23° |
| 2026-04-17 22:44 | 50.23261 | 8.81890 | 9619 ft | 293 kts | 23° |
| 2026-04-17 22:45 | 50.25149 | 8.83173 | 10325 ft | 297 kts | 23° |
| 2026-04-17 22:45 | 50.27123 | 8.84434 | 10603 ft | 316 kts | 15° |
| 2026-04-17 22:45 | 50.29374 | 8.84638 | 10777 ft | 335 kts | 352° |
| 2026-04-17 22:45 | 50.31722 | 8.84149 | 11058 ft | 350 kts | 350° |
| 2026-04-17 22:46 | 50.34169 | 8.83582 | 11600 ft | 357 kts | 350° |
| 2026-04-17 22:46 | 50.36637 | 8.83012 | 12301 ft | 359 kts | 350° |
| 2026-04-17 22:46 | 50.39117 | 8.82454 | 13035 ft | 361 kts | 350° |
| 2026-04-17 22:46 | 50.41586 | 8.81912 | 13727 ft | 364 kts | 350° |